Aérodrome :
LOGIN :

S'inscrire | Disclaimer

   EN    FR    IT 

 










Légende :    VFR   VFR Marginal   IFR   IFR Intensif   IFR Très Intensif
Visi : 
Plafond : 
>= 8 km
>= 3000ft
5 à 8 km
1000 à 3000 ft
1500m à 5 km
500 à 1000 ft
800 à 1500m
200 à 500 ft
< 800m
< 200 ft
Symboles :   Orages  Brouillard  Fortes neiges  Fortes précipitations  Vent > 20 kt
SIGMETs :   Divers  Orages  Givrage  Turbulence  Onde Orograph.  Cendres Volcan.







- Altitude de l'aérodrome : 479 ft
- Code IATA : DOL
- Voir les cartes d'approche


LFRG - Deauville

DERNIER METAR :
  • 221000Z AUTO 20007KT 7000 FEW022/// SCT030/// BKN037/// ///CB 04/04 Q1006 TEMPO 4000 SHRA

METARs EXPIRÉS :
  • 220930Z AUTO 20008KT 5000 BR FEW027/// BKN032/// BKN041/// ///TCU 02/02 Q1006 TEMPO SHRA
  • 220900Z AUTO 22008KT 5000 -RA BR SCT012/// SCT019/// BKN024/// ///TCU 03/02 Q1006 TEMPO SHRA
  • 220830Z AUTO VRB03KT 3000 BR SCT004/// SCT009/// BKN015/// ///TCU 02/02 Q1006 TEMPO SHRA
  • 220800Z AUTO 20007KT 4900 BR FEW004/// SCT013/// BKN029/// ///TCU 02/02 Q1006 TEMPO 24015G25KT 9999 NSW SCT030
  • 220730Z AUTO 20009KT 5000 BR FEW007/// BKN014/// OVC040/// ///TCU 02/02 Q1006 TEMPO 24015G25KT SHRA SCT030
  • 220700Z AUTO 21009KT 5000 BR SCT005 BKN018 BKN026 02/02 Q1007 NOSIG

TAF AMD TAF LFRG
Valide du 22 à 09h jusqu'au 22 à 18h UTC


220925Z 2209/2218 23010KT 9999 BKN030
TEMPO 2209/2218 4000 SHRA BKN020TCU
PROB40
TEMPO 2212/2218 26015G25KT 3000 SHRAGS BKN012CB
ATIS : +33 2 31 65 65 36
Pas de NOTAMs connus pour ce terrain.



MET'MAP, la Météo Aéronautique d'un coup d'oeil ! - Copyright ORBIFLY Décembre 2007 - Disclaimer

ORBIFLY MET'MAP TEAM :

Programmation & Développement : Alexandra Zaïnal
Conception & Développement : Baudouin d'Aumeries
Co-Programmation & Développement : Marc-Olivier Méhu
Soutien technique & logistique : Manuel Goepfert

Contact : metmap@orbifly.com




SOURCES & CREDITS :

   NOAA